Time;durP1;ratioP1;P1;durP2;ratioP2;P2;SDS_P1;SDS_P2;PMS_P1;PMS_P2;Temp;Humidity;BMP_temperature;BMP_pressure;BME280_temperature;BME280_humidity;BME280_pressure;Samples;Min_cycle;Max_cycle;Signal;HPM_P1;HPM_P2
2022/04/08 00:02:12;;;;;;;11.98;3.53;;;;;;;6.98;85.37;99641.34;5033129;28;20628;-47
2022/04/08 00:04:51;;;;;;;16.77;4.53;;;;;;;6.96;85.14;99633.47;5033372;28;20041;-47
2022/04/08 00:07:19;;;;;;;16.20;3.72;;;;;;;6.91;84.29;99632.69;5033413;28;20048;-47
2022/04/08 00:09:46;;;;;;;14.63;3.65;;;;;;;6.87;84.11;99637.81;5038631;28;20041;-48
2022/04/08 00:12:14;;;;;;;13.02;3.70;;;;;;;6.85;84.19;99647.28;5053315;28;20037;-47
2022/04/08 00:14:42;;;;;;;11.13;3.78;;;;;;;6.86;83.68;99647.03;5045318;28;20041;-45
2022/04/08 00:17:09;;;;;;;12.95;3.22;;;;;;;6.88;83.65;99654.88;5033069;28;20064;-48
2022/04/08 00:19:37;;;;;;;9.77;3.17;;;;;;;6.83;83.16;99658.38;5031975;28;20056;-44
2022/04/08 00:22:05;;;;;;;12.77;3.22;;;;;;;6.86;83.21;99667.88;5031517;28;20412;-48
2022/04/08 00:24:33;;;;;;;13.05;3.65;;;;;;;6.83;83.23;99675.47;5045308;28;20049;-47
2022/04/08 00:27:00;;;;;;;12.65;3.65;;;;;;;6.85;83.91;99685.19;5051850;28;20411;-48
2022/04/08 00:29:28;;;;;;;12.40;3.63;;;;;;;6.78;83.48;99691.72;5055145;28;20514;-46
2022/04/08 00:31:57;;;;;;;11.48;3.60;;;;;;;6.80;83.06;99689.53;5057166;28;20132;-48
2022/04/08 00:34:26;;;;;;;14.23;3.22;;;;;;;6.79;83.50;99693.31;5055410;28;20072;-47
2022/04/08 00:36:55;;;;;;;11.30;3.60;;;;;;;6.76;83.35;99685.75;5057170;28;20063;-46
2022/04/08 00:39:23;;;;;;;15.70;3.92;;;;;;;6.73;83.11;99688.97;5054997;28;20040;-44
2022/04/08 00:41:51;;;;;;;12.40;3.83;;;;;;;6.74;83.79;99690.63;5056339;28;20420;-47
2022/04/08 00:44:19;;;;;;;19.13;4.50;;;;;;;6.76;83.71;99685.75;5052397;28;20364;-47
2022/04/08 00:46:47;;;;;;;14.40;3.50;;;;;;;6.79;83.65;99696.03;5036685;28;20500;-48
2022/04/08 00:49:15;;;;;;;14.27;3.70;;;;;;;6.77;83.04;99691.97;5036948;28;20060;-48
2022/04/08 00:51:43;;;;;;;13.57;4.18;;;;;;;6.80;82.50;99703.06;5037031;28;20045;-46
2022/04/08 00:54:11;;;;;;;12.18;3.63;;;;;;;6.76;82.06;99701.19;5036229;28;20044;-48
2022/04/08 00:56:39;;;;;;;12.80;3.58;;;;;;;6.73;82.58;99702.50;5049430;28;20060;-47
2022/04/08 00:59:07;;;;;;;10.60;3.33;;;;;;;6.74;81.97;99706.06;5049746;28;20091;-47
2022/04/08 01:01:34;;;;;;;10.57;3.40;;;;;;;6.73;81.70;99721.47;5056718;28;20106;-45
2022/04/08 01:04:02;;;;;;;11.73;3.47;;;;;;;6.71;82.11;99731.78;5054874;28;20041;-47
2022/04/08 01:06:30;;;;;;;14.10;3.45;;;;;;;6.70;81.11;99713.88;5056602;28;20049;-46
2022/04/08 01:08:58;;;;;;;15.52;3.72;;;;;;;6.69;80.86;99725.00;5056173;28;20051;-47
2022/04/08 01:11:25;;;;;;;10.73;3.40;;;;;;;6.69;80.69;99727.72;5056404;28;20049;-47
2022/04/08 01:13:53;;;;;;;11.50;3.20;;;;;;;6.69;81.42;99733.13;5056728;28;20044;-49
2022/04/08 01:16:21;;;;;;;11.32;3.20;;;;;;;6.70;81.24;99734.75;5037199;28;20049;-48
2022/04/08 01:18:49;;;;;;;13.80;3.65;;;;;;;6.66;80.31;99739.84;5032025;28;20048;-45
2022/04/08 01:21:18;;;;;;;14.13;3.42;;;;;;;6.67;80.74;99740.69;5036269;28;20496;-46
2022/04/08 01:23:48;;;;;;;13.43;3.88;;;;;;;6.65;80.54;99743.66;5036306;28;20120;-47
2022/04/08 01:26:16;;;;;;;13.20;3.63;;;;;;;6.67;80.25;99757.75;5037607;28;20041;-47
2022/04/08 01:28:45;;;;;;;14.07;3.60;;;;;;;6.61;79.78;99753.38;5036000;28;20415;-47
2022/04/08 01:31:13;;;;;;;15.52;3.22;;;;;;;6.63;80.16;99753.94;5035770;28;20048;-46
2022/04/08 01:33:41;;;;;;;11.23;3.20;;;;;;;6.64;80.44;99757.44;5035062;28;20053;-43
2022/04/08 01:36:08;;;;;;;9.13;2.95;;;;;;;6.65;80.76;99759.91;5042559;28;20048;-46
2022/04/08 01:38:36;;;;;;;12.60;3.10;;;;;;;6.63;80.51;99759.34;5055463;28;20148;-46
2022/04/08 01:41:04;;;;;;;14.20;3.38;;;;;;;6.59;80.03;99767.22;5055164;28;20037;-47
2022/04/08 01:43:31;;;;;;;13.57;3.20;;;;;;;6.56;80.40;99775.03;5053961;28;20045;-46
2022/04/08 01:46:00;;;;;;;12.65;3.60;;;;;;;6.56;80.47;99772.31;5052098;28;20045;-47
2022/04/08 01:48:28;;;;;;;15.50;3.65;;;;;;;6.55;80.70;99773.41;5036706;28;20108;-48
2022/04/08 01:50:55;;;;;;;12.13;3.30;;;;;;;6.58;81.18;99775.59;5048096;28;20037;-47
2022/04/08 01:53:23;;;;;;;15.10;3.72;;;;;;;6.55;81.67;99786.94;5055993;28;20056;-47
2022/04/08 01:55:51;;;;;;;11.00;3.10;;;;;;;6.52;81.73;99787.50;5055537;28;20438;-46
2022/04/08 01:58:18;;;;;;;10.45;3.53;;;;;;;6.54;82.22;99788.00;5051679;28;20037;-47
2022/04/08 02:00:46;;;;;;;13.30;3.42;;;;;;;6.54;82.39;99779.91;5053916;28;20037;-47
2022/04/08 02:03:17;;;;;;;12.30;3.20;;;;;;;6.53;82.40;99781.00;5055008;28;20395;-48
2022/04/08 02:05:45;;;;;;;12.60;3.67;;;;;;;6.48;82.60;99792.59;5055536;28;20052;-47
2022/04/08 02:08:12;;;;;;;10.05;2.95;;;;;;;6.46;83.05;99788.53;5055488;28;20041;-48
2022/04/08 02:10:40;;;;;;;9.70;3.05;;;;;;;6.52;83.67;99792.91;5041481;28;20041;-47
2022/04/08 02:13:08;;;;;;;10.65;3.30;;;;;;;6.48;83.48;99792.59;5033990;28;20133;-48
2022/04/08 02:15:36;;;;;;;17.45;4.05;;;;;;;6.47;84.07;99790.16;5051844;28;20503;-48
2022/04/08 02:18:05;;;;;;;13.95;3.60;;;;;;;6.43;82.76;99803.41;5055468;28;20060;-47
2022/04/08 02:20:32;;;;;;;12.25;3.65;;;;;;;6.37;81.68;99807.19;5053289;28;20064;-47
2022/04/08 02:23:00;;;;;;;8.70;3.00;;;;;;;6.34;81.85;99797.69;5053174;28;20508;-48
2022/04/08 02:25:28;;;;;;;10.05;3.00;;;;;;;6.31;82.24;99792.81;5053009;28;20100;-48
2022/04/08 02:27:56;;;;;;;12.23;3.50;;;;;;;6.32;82.92;99805.25;5053445;28;20509;-47
2022/04/08 02:30:24;;;;;;;11.50;3.03;;;;;;;6.37;83.18;99797.19;5053435;28;20453;-47
2022/04/08 02:32:51;;;;;;;11.25;3.72;;;;;;;6.37;83.60;99793.66;5055094;28;20040;-48
2022/04/08 02:35:20;;;;;;;11.77;2.97;;;;;;;6.37;82.68;99801.75;5044554;28;20051;-46
2022/04/08 02:37:48;;;;;;;11.23;3.20;;;;;;;6.37;81.11;99805.31;5053885;28;20139;-49
2022/04/08 02:40:15;;;;;;;12.05;3.15;;;;;;;6.36;80.90;99805.56;5054446;28;20036;-47
2022/04/08 02:42:43;;;;;;;9.50;3.05;;;;;;;6.36;81.28;99802.84;5036121;28;20051;-49
2022/04/08 02:45:10;;;;;;;10.48;3.08;;;;;;;6.39;79.69;99803.13;5054800;28;20045;-48
2022/04/08 02:47:45;;;;;;;8.52;3.03;;;;;;;6.39;79.80;99800.41;5049729;28;20133;-47
2022/04/08 02:50:13;;;;;;;12.45;3.25;;;;;;;6.39;80.72;99800.41;5034432;28;20073;-45
2022/04/08 02:52:41;;;;;;;16.23;3.45;;;;;;;6.43;79.90;99803.41;5034661;28;20424;-47
2022/04/08 02:55:09;;;;;;;11.55;3.17;;;;;;;6.42;79.98;99806.38;5051140;28;20044;-45
2022/04/08 02:57:46;;;;;;;9.30;3.00;;;;;;;6.39;79.58;99810.44;5054563;28;20049;-46
2022/04/08 03:00:18;;;;;;;8.18;2.65;;;;;;;6.35;79.76;99817.44;5052375;28;20403;-49
2022/04/08 03:02:47;;;;;;;9.40;2.90;;;;;;;6.35;80.57;99815.56;5046886;28;20041;-47
2022/04/08 03:05:16;;;;;;;10.18;2.65;;;;;;;6.38;80.68;99820.44;5038970;28;20061;-48
2022/04/08 03:07:44;;;;;;;9.57;2.50;;;;;;;6.37;80.34;99815.28;5034405;28;20045;-48
2022/04/08 03:10:12;;;;;;;9.50;2.50;;;;;;;6.37;80.67;99813.41;5033079;28;20050;-49
2022/04/08 03:12:40;;;;;;;10.07;2.70;;;;;;;6.39;80.77;99816.66;5036814;28;20037;-47
2022/04/08 03:15:08;;;;;;;10.75;3.25;;;;;;;6.37;81.24;99818.84;5028810;28;20428;-48
2022/04/08 03:17:36;;;;;;;17.15;3.15;;;;;;;6.38;81.41;99819.63;5033790;28;20057;-46
2022/04/08 03:20:05;;;;;;;6.78;2.47;;;;;;;6.37;81.38;99826.94;5049078;28;20033;-48
2022/04/08 03:22:33;;;;;;;8.35;2.50;;;;;;;6.35;81.88;99831.81;5052952;28;20052;-47
2022/04/08 03:25:00;;;;;;;8.73;2.95;;;;;;;6.34;82.18;99830.16;5050587;28;20381;-51
2022/04/08 03:27:28;;;;;;;11.90;2.85;;;;;;;6.34;82.03;99835.56;5046325;28;20291;-49
2022/04/08 03:29:56;;;;;;;9.00;2.67;;;;;;;6.32;82.91;99843.13;5033915;28;20056;-47
2022/04/08 03:32:23;;;;;;;11.00;3.03;;;;;;;6.30;82.85;99849.88;5037350;28;20037;-47
2022/04/08 03:34:57;;;;;;;8.15;2.42;;;;;;;6.30;83.25;99850.72;5044904;28;20036;-48
2022/04/08 03:37:26;;;;;;;10.82;3.28;;;;;;;6.28;83.19;99855.59;5036222;28;20048;-48
2022/04/08 03:39:53;;;;;;;6.72;2.70;;;;;;;6.26;83.40;99855.03;5052601;28;20051;-44
2022/04/08 03:42:22;;;;;;;9.02;3.10;;;;;;;6.25;83.68;99853.38;5052609;28;20047;-47
2022/04/08 03:44:51;;;;;;;10.10;2.90;;;;;;;6.25;84.19;99864.19;5048918;28;20051;-48
2022/04/08 03:47:20;;;;;;;12.98;3.60;;;;;;;6.19;84.24;99859.84;5033574;28;20073;-47
2022/04/08 03:49:48;;;;;;;13.68;3.47;;;;;;;6.18;84.91;99861.75;5033645;28;20056;-47
2022/04/08 03:52:16;;;;;;;10.90;3.47;;;;;;;6.20;84.70;99866.88;5037228;28;20048;-48
2022/04/08 03:54:43;;;;;;;12.48;3.65;;;;;;;6.21;84.71;99865.81;5053185;28;20041;-50
2022/04/08 03:57:11;;;;;;;9.73;3.47;;;;;;;6.21;85.06;99863.13;5035771;28;20407;-50
2022/04/08 03:59:41;;;;;;;11.73;3.38;;;;;;;6.21;84.98;99860.41;5033252;28;20041;-47
2022/04/08 04:02:09;;;;;;;10.95;3.03;;;;;;;6.20;84.98;99866.88;5033951;28;20041;-48
2022/04/08 04:04:37;;;;;;;14.43;3.88;;;;;;;6.20;85.15;99866.88;5033265;28;20560;-48
2022/04/08 04:07:05;;;;;;;11.85;3.58;;;;;;;6.20;85.03;99866.88;5034256;28;20041;-48
2022/04/08 04:09:32;;;;;;;10.88;3.05;;;;;;;6.20;85.14;99864.19;5033155;28;20053;-48
2022/04/08 04:12:00;;;;;;;12.30;3.75;;;;;;;6.19;85.77;99860.66;5037407;28;20045;-47
2022/04/08 04:14:27;;;;;;;12.00;3.75;;;;;;;6.19;85.19;99855.25;5053238;28;20048;-44
2022/04/08 04:16:55;;;;;;;14.95;4.55;;;;;;;6.16;85.90;99854.97;5045698;28;20045;-49
2022/04/08 04:19:22;;;;;;;10.90;3.20;;;;;;;6.16;85.48;99860.38;5033168;28;20060;-46
2022/04/08 04:21:50;;;;;;;15.82;4.20;;;;;;;6.15;85.57;99864.97;5046749;28;20411;-45
2022/04/08 04:24:18;;;;;;;14.05;3.65;;;;;;;6.14;85.88;99859.84;5052802;28;20055;-47
2022/04/08 04:26:46;;;;;;;13.13;4.10;;;;;;;6.13;86.00;99855.47;5051431;28;20055;-46
2022/04/08 04:29:14;;;;;;;10.20;3.40;;;;;;;6.13;85.78;99860.91;5043235;28;20037;-47
2022/04/08 04:31:41;;;;;;;12.82;4.13;;;;;;;6.11;85.70;99853.06;5034126;28;20412;-47
2022/04/08 04:34:09;;;;;;;16.50;3.72;;;;;;;6.09;85.63;99859.81;5033199;28;20500;-51
2022/04/08 04:36:36;;;;;;;14.63;3.80;;;;;;;6.07;85.48;99853.84;5032771;28;20065;-49
2022/04/08 04:39:04;;;;;;;14.43;3.40;;;;;;;6.06;85.62;99860.31;5048404;28;20101;-50
2022/04/08 04:41:32;;;;;;;14.02;3.45;;;;;;;6.04;85.52;99859.75;5051329;28;20055;-50
2022/04/08 04:44:00;;;;;;;12.38;3.50;;;;;;;6.02;85.16;99861.94;5050862;28;20517;-49
2022/04/08 04:46:27;;;;;;;10.93;3.10;;;;;;;6.01;85.28;99858.38;5051262;28;20045;-51
2022/04/08 04:48:55;;;;;;;10.35;3.00;;;;;;;6.03;85.06;99863.53;5035503;28;20049;-50
2022/04/08 04:51:23;;;;;;;13.27;3.60;;;;;;;6.03;84.81;99860.84;5032931;28;20038;-48
2022/04/08 04:53:51;;;;;;;12.70;3.60;;;;;;;6.01;84.51;99857.59;5032934;28;20065;-50
2022/04/08 04:56:18;;;;;;;13.15;4.35;;;;;;;6.01;84.42;99852.19;5033739;28;20051;-51
2022/04/08 04:58:46;;;;;;;12.13;3.80;;;;;;;6.00;84.68;99866.78;5048834;28;20400;-49
2022/04/08 05:01:14;;;;;;;9.63;3.00;;;;;;;5.98;83.84;99870.53;5038529;28;20053;-44
2022/04/08 05:03:41;;;;;;;10.95;3.30;;;;;;;5.96;83.81;99867.31;5032108;28;20041;-50
2022/04/08 05:06:09;;;;;;;11.85;3.63;;;;;;;5.94;84.18;99866.75;5032775;28;20042;-52
2022/04/08 05:08:37;;;;;;;12.02;3.47;;;;;;;5.95;84.06;99865.66;5051499;28;20042;-52
2022/04/08 05:11:04;;;;;;;12.10;3.47;;;;;;;5.95;83.92;99871.06;5052291;28;20044;-51
2022/04/08 05:13:32;;;;;;;10.23;2.95;;;;;;;5.95;83.51;99865.66;5054047;28;20132;-51
2022/04/08 05:16:00;;;;;;;12.75;3.33;;;;;;;5.95;83.68;99871.06;5049563;28;20065;-48
2022/04/08 05:18:28;;;;;;;11.40;3.30;;;;;;;5.95;83.82;99873.78;5037244;28;20058;-50
2022/04/08 05:20:56;;;;;;;13.60;3.40;;;;;;;5.95;84.01;99881.09;5036092;28;20141;-51
2022/04/08 05:23:28;;;;;;;11.88;3.35;;;;;;;5.96;84.54;99877.28;5036130;28;20050;-50
2022/04/08 05:25:57;;;;;;;12.75;3.42;;;;;;;5.94;84.59;99872.16;5035787;28;20480;-51
2022/04/08 05:28:25;;;;;;;11.43;3.47;;;;;;;5.96;84.84;99871.88;5036170;28;20128;-49
2022/04/08 05:30:53;;;;;;;10.98;3.33;;;;;;;5.96;84.90;99872.72;5034447;28;20049;-51
2022/04/08 05:33:21;;;;;;;10.13;3.05;;;;;;;5.96;85.31;99871.88;5035579;28;20053;-49
2022/04/08 05:35:49;;;;;;;10.98;3.65;;;;;;;5.98;85.64;99865.13;4338548;28;10000748;-47
2022/04/08 05:38:17;;;;;;;9.48;3.15;;;;;;;5.97;85.92;99862.72;5034750;28;20124;-50
2022/04/08 05:40:44;;;;;;;10.40;3.65;;;;;;;5.99;85.81;99855.16;5032543;28;20047;-53
2022/04/08 05:43:12;;;;;;;11.20;3.50;;;;;;;5.99;86.16;99852.47;5032363;28;20109;-50
2022/04/08 05:45:40;;;;;;;12.80;3.70;;;;;;;6.02;86.47;99851.94;5032513;28;20045;-49
2022/04/08 05:48:08;;;;;;;10.48;3.40;;;;;;;6.04;86.19;99846.22;5046469;28;20045;-49
2022/04/08 05:50:36;;;;;;;11.02;3.65;;;;;;;6.08;86.12;99845.44;5038684;28;20049;-48
2022/04/08 05:53:04;;;;;;;13.88;3.70;;;;;;;6.11;85.65;99842.25;5032525;28;20053;-49
2022/04/08 05:55:52;;;;;;;11.02;3.30;;;;;;;6.09;85.34;99843.59;5044416;28;20040;-48
2022/04/08 05:58:20;;;;;;;12.20;3.83;;;;;;;6.09;85.50;99838.19;5050240;28;20099;-48
2022/04/08 06:00:47;;;;;;;13.93;3.70;;;;;;;6.09;85.56;99832.75;5037679;28;20034;-47
2022/04/08 06:03:15;;;;;;;8.73;3.33;;;;;;;6.08;85.99;99836.53;5032357;28;20037;-51
2022/04/08 06:05:43;;;;;;;12.38;3.50;;;;;;;6.05;85.33;99832.47;5032365;28;20049;-51
2022/04/08 06:08:10;;;;;;;11.70;3.38;;;;;;;6.03;85.55;99829.19;5032204;28;20154;-50
2022/04/08 06:10:38;;;;;;;12.05;3.22;;;;;;;6.03;84.86;99823.78;5046457;28;20051;-52
2022/04/08 06:13:06;;;;;;;18.15;4.63;;;;;;;6.02;84.83;99826.78;5053673;28;20041;-53
2022/04/08 06:15:35;;;;;;;9.32;3.60;;;;;;;6.03;84.84;99839.22;5054998;28;20183;-51
2022/04/08 06:18:03;;;;;;;9.18;2.97;;;;;;;6.06;84.86;99831.41;5048028;28;20092;-49
2022/04/08 06:20:30;;;;;;;11.00;3.00;;;;;;;6.12;84.63;99837.66;5047718;28;20041;-49
2022/04/08 06:22:58;;;;;;;8.98;2.85;;;;;;;6.19;84.72;99832.81;5035002;28;20037;-49
2022/04/08 06:25:25;;;;;;;10.82;3.17;;;;;;;6.18;84.29;99834.72;5035587;28;20052;-49
2022/04/08 06:28:03;;;;;;;9.98;3.22;;;;;;;6.20;83.78;99839.84;5034924;28;20473;-50
2022/04/08 06:30:32;;;;;;;10.57;3.50;;;;;;;6.20;83.89;99839.84;5034866;28;20054;-49
2022/04/08 06:33:00;;;;;;;13.32;3.95;;;;;;;6.28;84.67;99839.34;5051440;28;20095;-49
2022/04/08 06:35:28;;;;;;;11.38;3.58;;;;;;;6.26;84.22;99846.09;5054868;28;20052;-50
2022/04/08 06:38:05;;;;;;;14.88;3.95;;;;;;;6.25;84.44;99842.56;5053239;28;20045;-49
2022/04/08 06:40:38;;;;;;;10.98;3.63;;;;;;;6.28;84.57;99847.47;5054680;28;20479;-48
2022/04/08 06:43:07;;;;;;;13.40;3.70;;;;;;;6.30;84.32;99850.72;5054808;28;20484;-50
2022/04/08 06:45:36;;;;;;;8.52;3.90;;;;;;;6.34;84.80;99829.34;5052627;28;20033;-50
2022/04/08 06:48:04;;;;;;;12.10;4.13;;;;;;;6.36;83.94;99828.00;5051761;28;20504;-49
2022/04/08 06:50:33;;;;;;;12.85;3.92;;;;;;;6.38;84.52;99825.84;5043092;28;20046;-47
2022/04/08 06:53:01;;;;;;;10.35;3.63;;;;;;;6.40;83.47;99826.41;5037230;28;20040;-51
2022/04/08 06:55:30;;;;;;;12.93;3.95;;;;;;;6.43;83.66;99821.56;5054131;28;20049;-47
2022/04/08 06:57:59;;;;;;;9.48;3.50;;;;;;;6.45;84.03;99824.81;5054030;28;20049;-51
2022/04/08 07:00:30;;;;;;;11.73;3.85;;;;;;;6.45;83.66;99819.41;5034941;28;20120;-50
2022/04/08 07:02:58;;;;;;;11.25;3.97;;;;;;;6.47;83.52;99822.63;5054139;28;20041;-51
2022/04/08 07:05:28;;;;;;;12.68;3.55;;;;;;;6.52;83.75;99826.19;5054262;28;20045;-49
2022/04/08 07:07:56;;;;;;;11.10;3.70;;;;;;;6.54;83.65;99815.91;5053942;28;20051;-48
2022/04/08 07:10:24;;;;;;;13.35;4.30;;;;;;;6.53;83.98;99818.88;5034441;28;20053;-44
2022/04/08 07:12:52;;;;;;;8.27;3.47;;;;;;;6.56;83.77;99821.03;5034235;28;20046;-47
2022/04/08 07:15:20;;;;;;;12.20;4.30;;;;;;;6.57;83.96;99822.69;5034092;28;20052;-47
2022/04/08 07:17:47;;;;;;;12.77;4.03;;;;;;;6.54;83.86;99825.91;5045381;28;20053;-46
2022/04/08 07:20:17;;;;;;;13.88;4.78;;;;;;;6.47;84.71;99830.75;5043945;28;20407;-46
2022/04/08 07:22:46;;;;;;;12.43;4.57;;;;;;;6.47;85.21;99828.03;5054028;28;20449;-46
2022/04/08 07:25:15;;;;;;;10.52;4.53;;;;;;;6.48;86.01;99819.66;5052507;28;20051;-45
2022/04/08 07:27:50;;;;;;;10.93;4.00;;;;;;;6.46;84.76;99821.00;5041560;28;20091;-47
2022/04/08 07:30:20;;;;;;;10.32;4.10;;;;;;;6.49;85.41;99823.19;5033609;28;20041;-51
2022/04/08 07:32:52;;;;;;;12.63;4.50;;;;;;;6.58;85.13;99824.31;5040224;28;20042;-51
2022/04/08 07:35:25;;;;;;;12.02;4.20;;;;;;;6.59;85.53;99820.50;5033957;28;20136;-46
2022/04/08 07:37:53;;;;;;;10.80;4.35;;;;;;;6.57;85.86;99817.28;5035949;28;20053;-49
2022/04/08 07:40:21;;;;;;;10.43;4.22;;;;;;;6.57;86.28;99818.06;5040203;28;20136;-48
2022/04/08 07:42:49;;;;;;;11.52;4.07;;;;;;;6.60;85.76;99809.41;5051600;28;20033;-47
2022/04/08 07:45:17;;;;;;;11.00;4.30;;;;;;;6.61;85.32;99808.34;5050435;28;20056;-51
2022/04/08 07:47:45;;;;;;;9.45;3.90;;;;;;;6.61;84.78;99821.88;5048868;28;20376;-51
2022/04/08 07:50:14;;;;;;;14.43;4.20;;;;;;;6.63;84.65;99818.91;5033371;28;20048;-46
2022/04/08 07:52:43;;;;;;;15.38;4.68;;;;;;;6.64;84.43;99817.84;5032575;28;20504;-47
2022/04/08 07:55:11;;;;;;;11.25;4.07;;;;;;;6.67;83.99;99822.72;5033527;28;20037;-44
2022/04/08 07:57:50;;;;;;;10.70;4.20;;;;;;;6.68;83.70;99818.91;5049915;28;20051;-49
2022/04/08 08:00:19;;;;;;;14.50;5.20;;;;;;;6.75;83.90;99808.63;5052954;28;20103;-46
2022/04/08 08:02:48;;;;;;;13.30;4.10;;;;;;;6.78;83.15;99802.72;5053241;28;20052;-48
2022/04/08 08:05:16;;;;;;;12.65;4.30;;;;;;;6.80;82.61;99805.94;5053111;28;20444;-49
2022/04/08 08:07:55;;;;;;;12.05;4.00;;;;;;;6.78;83.20;99802.72;5046422;28;20124;-49
2022/04/08 08:10:25;;;;;;;8.68;3.90;;;;;;;6.76;83.05;99809.47;5033296;28;20042;-52
2022/04/08 08:12:54;;;;;;;16.55;4.22;;;;;;;6.75;82.99;99808.63;5042282;28;20125;-49
2022/04/08 08:15:22;;;;;;;10.05;3.85;;;;;;;6.73;82.31;99808.09;5035095;28;20040;-47
2022/04/08 08:17:51;;;;;;;10.27;3.80;;;;;;;6.72;82.68;99808.38;5046979;28;20424;-50
2022/04/08 08:20:20;;;;;;;13.75;4.13;;;;;;;6.73;81.90;99801.88;5032755;28;20467;-49
2022/04/08 08:22:48;;;;;;;9.88;3.70;;;;;;;6.89;82.94;99805.44;5033536;28;20037;-51
2022/04/08 08:25:17;;;;;;;10.70;3.85;;;;;;;6.94;82.00;99808.13;5032276;28;20389;-47
2022/04/08 08:27:53;;;;;;;10.43;3.40;;;;;;;6.94;81.49;99805.44;5038767;28;20056;-50
2022/04/08 08:30:21;;;;;;;8.52;3.58;;;;;;;6.98;81.56;99801.09;5052885;28;20041;-50
2022/04/08 08:32:50;;;;;;;10.93;3.97;;;;;;;6.99;81.70;99808.13;5052394;28;20476;-49
2022/04/08 08:35:18;;;;;;;7.03;3.40;;;;;;;7.00;80.99;99794.34;5053393;28;20136;-49
2022/04/08 08:37:47;;;;;;;14.55;4.10;;;;;;;7.02;80.02;99796.75;5051507;28;20042;-53
2022/04/08 08:40:16;;;;;;;11.82;3.97;;;;;;;7.05;80.79;99790.81;5053127;28;20056;-51
2022/04/08 08:42:44;;;;;;;8.75;3.60;;;;;;;7.09;79.79;99789.19;5052818;28;20056;-52
2022/04/08 08:45:13;;;;;;;16.65;5.15;;;;;;;7.27;81.66;99781.63;5052747;28;20048;-49
2022/04/08 08:47:42;;;;;;;8.95;3.92;;;;;;;7.32;81.52;99785.13;5045369;28;20041;-52
2022/04/08 08:50:10;;;;;;;10.80;3.60;;;;;;;7.23;79.70;99776.72;5036896;28;20079;-53
2022/04/08 08:52:38;;;;;;;14.40;4.25;;;;;;;7.28;80.56;99765.06;5036702;28;20041;-49
2022/04/08 08:55:06;;;;;;;11.73;3.70;;;;;;;7.29;79.79;99758.59;5041978;28;20470;-53
2022/04/08 08:57:34;;;;;;;10.32;3.60;;;;;;;7.34;78.65;99750.44;5052652;28;20038;-50
2022/04/08 09:00:13;;;;;;;10.30;3.90;;;;;;;7.31;78.63;99761.00;5041683;28;20046;-49
2022/04/08 09:02:43;;;;;;;19.27;4.68;;;;;;;7.45;82.42;99762.06;5039609;28;20128;-52
2022/04/08 09:05:14;;;;;;;13.65;6.35;;;;;;;7.43;79.41;99756.09;5037567;28;20076;-49
2022/04/08 09:07:51;;;;;;;11.15;4.00;;;;;;;7.42;78.36;99749.06;5042549;28;20037;-45
2022/04/08 09:10:24;;;;;;;7.68;3.40;;;;;;;7.39;77.80;99753.16;5037550;28;20444;-52
2022/04/08 09:12:56;;;;;;;9.80;3.28;;;;;;;7.38;77.78;99748.78;5019054;28;20403;-49
2022/04/08 09:15:25;;;;;;;10.35;3.90;;;;;;;7.39;77.43;99738.78;5038586;28;20088;-49
2022/04/08 09:17:53;;;;;;;11.52;4.57;;;;;;;7.60;83.87;99740.38;5037503;28;20052;-52
2022/04/08 09:20:21;;;;;;;10.25;3.70;;;;;;;7.63;80.19;99741.72;5034946;28;20037;-49
2022/04/08 09:22:56;;;;;;;11.18;3.80;;;;;;;7.55;77.33;99745.81;5036422;28;20084;-50
2022/04/08 09:25:27;;;;;;;9.93;3.80;;;;;;;7.49;76.11;99738.75;5026592;28;20049;-49
2022/04/08 09:27:58;;;;;;;8.20;3.15;;;;;;;7.58;83.07;99739.03;5049425;28;20090;-50
2022/04/08 09:30:26;;;;;;;9.07;3.65;;;;;;;7.62;76.67;99745.50;5048785;28;20102;-48
2022/04/08 09:32:54;;;;;;;10.25;3.65;;;;;;;7.55;75.07;99740.41;5054046;28;20491;-50
2022/04/08 09:35:24;;;;;;;13.68;3.78;;;;;;;7.56;75.39;99742.00;5054687;28;20052;-48
2022/04/08 09:38:01;;;;;;;12.10;3.83;;;;;;;7.64;77.13;99737.91;5054127;28;20045;-50
2022/04/08 09:40:40;;;;;;;11.43;4.07;;;;;;;7.58;75.34;99737.13;5054762;28;20045;-49
2022/04/08 09:43:08;;;;;;;12.52;4.22;;;;;;;7.63;78.94;99737.09;5037918;28;20466;-50
2022/04/08 09:45:38;;;;;;;11.23;3.53;;;;;;;7.61;75.74;99731.16;5035932;28;20053;-48
2022/04/08 09:48:08;;;;;;;10.98;3.72;;;;;;;7.58;73.65;99728.19;5051894;28;20503;-50
2022/04/08 09:50:37;;;;;;;11.95;3.40;;;;;;;7.54;74.54;99725.19;5045799;28;20068;-49
2022/04/08 09:53:05;;;;;;;12.02;3.67;;;;;;;7.55;74.46;99726.00;5035670;28;20500;-47
2022/04/08 09:55:35;;;;;;;11.82;4.13;;;;;;;7.69;79.18;99730.56;5034285;28;20052;-49
2022/04/08 09:58:08;;;;;;;12.13;4.55;;;;;;;7.73;79.98;99724.63;5034637;28;20045;-50
2022/04/08 10:00:38;;;;;;;13.10;3.97;;;;;;;7.69;74.59;99727.06;5033363;28;20488;-52
2022/04/08 10:03:06;;;;;;;12.38;3.50;;;;;;;7.67;74.06;99724.63;5034561;28;20041;-49
2022/04/08 10:05:34;;;;;;;10.23;3.47;;;;;;;7.64;74.36;99727.88;5035467;28;20099;-49
2022/04/08 10:08:02;;;;;;;12.52;3.47;;;;;;;7.65;73.82;99723.28;5037504;28;20045;-51
2022/04/08 10:10:40;;;;;;;8.15;3.33;;;;;;;7.65;73.34;99724.09;5035001;28;20519;-50
2022/04/08 10:13:27;;;;;;;11.88;4.00;;;;;;;7.70;74.88;99723.28;5035129;28;20411;-50
2022/04/08 10:16:17;;;;;;;10.88;4.00;;;;;;;7.86;77.87;99721.31;5034002;28;20096;-49
2022/04/08 10:18:46;;;;;;;11.95;4.07;;;;;;;8.06;78.48;99723.94;5034117;28;20045;-49
2022/04/08 10:21:15;;;;;;;9.93;3.42;;;;;;;8.05;74.31;99727.72;5025094;28;20041;-49
2022/04/08 10:23:55;;;;;;;10.68;3.25;;;;;;;7.95;73.27;99722.34;5040631;28;20045;-52
2022/04/08 10:26:25;;;;;;;12.75;3.65;;;;;;;7.97;75.27;99722.91;5052536;28;20076;-46
2022/04/08 10:28:54;;;;;;;9.82;3.72;;;;;;;8.03;79.55;99727.22;5034687;28;20042;-50
2022/04/08 10:31:26;;;;;;;7.80;3.20;;;;;;;7.92;72.50;99722.91;5047626;28;20120;-49
2022/04/08 10:34:00;;;;;;;12.48;3.78;;;;;;;7.83;71.73;99724.56;5044716;28;20048;-49
2022/04/08 10:36:45;;;;;;;14.68;6.18;;;;;;;7.74;71.46;99726.22;5049794;28;20045;-49
2022/04/08 10:39:17;;;;;;;14.05;5.40;;;;;;;7.71;71.73;99722.16;5044489;28;20082;-48
2022/04/08 10:41:52;;;;;;;11.30;4.35;;;;;;;7.71;71.21;99715.94;5040692;28;20411;-49
2022/04/08 10:44:37;;;;;;;13.30;4.35;;;;;;;7.73;70.81;99719.19;5051516;28;20052;-48
2022/04/08 10:47:13;;;;;;;12.40;3.67;;;;;;;7.69;71.30;99719.72;5054733;28;20047;-47
2022/04/08 10:49:54;;;;;;;13.68;4.28;;;;;;;7.69;70.21;99708.88;5032132;28;20044;-49
2022/04/08 10:52:24;;;;;;;10.95;3.75;;;;;;;7.71;69.73;99710.53;5046984;28;20133;-50
2022/04/08 10:55:02;;;;;;;12.60;3.60;;;;;;;7.72;69.98;99717.56;5051209;28;20469;-49
2022/04/08 10:57:34;;;;;;;38.42;18.33;;;;;;;7.78;71.04;99717.25;5048833;28;20044;-45
2022/04/08 11:00:20;;;;;;;34.90;19.75;;;;;;;7.89;72.66;99712.63;5050037;28;20045;-49
2022/04/08 11:02:47;;;;;;;12.65;4.05;;;;;;;7.90;69.76;99715.06;5044179;28;20487;-45
2022/04/08 11:05:16;;;;;;;28.70;12.95;;;;;;;7.99;72.19;99718.00;5044278;28;20057;-45
2022/04/08 11:07:46;;;;;;;57.75;32.25;;;;;;;8.09;73.53;99715.25;5043178;28;20045;-49
2022/04/08 11:10:19;;;;;;;56.47;31.92;;;;;;;8.14;72.48;99716.31;5040524;28;20110;-49
2022/04/08 11:12:48;;;;;;;11.52;4.60;;;;;;;8.09;70.53;99715.25;5047496;28;20494;-49
2022/04/08 11:15:19;;;;;;;27.95;11.93;;;;;;;8.17;72.83;99710.31;5039804;28;20040;-49
2022/04/08 11:17:47;;;;;;;10.50;3.80;;;;;;;8.15;70.03;99696.22;5045327;28;20056;-51
2022/04/08 11:20:17;;;;;;;9.43;4.07;;;;;;;8.09;70.70;99693.53;5043427;28;20468;-49
2022/04/08 11:22:49;;;;;;;57.35;34.42;;;;;;;8.18;74.70;99695.66;5037765;28;20033;-51
2022/04/08 11:25:23;;;;;;;13.15;5.40;;;;;;;8.17;70.93;99691.34;5044830;28;20455;-51
2022/04/08 11:28:01;;;;;;;56.28;32.92;;;;;;;8.25;81.00;99693.44;5047975;28;20237;-49
2022/04/08 11:30:52;;;;;;;15.30;6.28;;;;;;;8.21;71.40;99704.06;5035689;28;20037;-50
2022/04/08 11:33:20;;;;;;;9.05;3.80;;;;;;;8.17;69.92;99694.84;5043700;28;20037;-44
2022/04/08 11:35:57;;;;;;;11.40;3.30;;;;;;;8.10;69.20;99689.75;5040020;28;20046;-44
2022/04/08 11:38:25;;;;;;;11.43;3.40;;;;;;;8.08;68.64;99681.06;5045612;28;20040;-45
2022/04/08 11:40:53;;;;;;;8.70;3.20;;;;;;;8.07;66.61;99668.59;5046641;28;20044;-48
2022/04/08 11:43:21;;;;;;;11.07;3.05;;;;;;;8.08;65.52;99662.09;5039454;28;20038;-49
2022/04/08 11:45:51;;;;;;;12.52;3.10;;;;;;;8.09;64.86;99658.28;5044107;28;20049;-50